sensor_id;sensor_type;location;lat;lon;timestamp;P1;durP1;ratioP1;P2;durP2;ratioP2
30818;SDS011;17546;42.674;23.284;2023-10-09T00:02:09;11.60;;;2.50;;
30818;SDS011;17546;42.674;23.284;2023-10-09T00:04:39;15.90;;;3.25;;
30818;SDS011;17546;42.674;23.284;2023-10-09T00:07:07;13.85;;;3.33;;
30818;SDS011;17546;42.674;23.284;2023-10-09T00:09:34;16.83;;;3.22;;
30818;SDS011;17546;42.674;23.284;2023-10-09T00:12:11;15.98;;;2.90;;
30818;SDS011;17546;42.674;23.284;2023-10-09T00:14:41;11.93;;;2.42;;
30818;SDS011;17546;42.674;23.284;2023-10-09T00:17:09;11.88;;;2.80;;
30818;SDS011;17546;42.674;23.284;2023-10-09T00:19:37;15.10;;;3.67;;
30818;SDS011;17546;42.674;23.284;2023-10-09T00:22:03;17.38;;;3.17;;
30818;SDS011;17546;42.674;23.284;2023-10-09T00:24:32;11.85;;;2.45;;
30818;SDS011;17546;42.674;23.284;2023-10-09T00:26:58;27.55;;;2.78;;
30818;SDS011;17546;42.674;23.284;2023-10-09T00:29:47;10.38;;;2.38;;
30818;SDS011;17546;42.674;23.284;2023-10-09T00:32:14;12.57;;;2.75;;
30818;SDS011;17546;42.674;23.284;2023-10-09T00:34:52;16.73;;;2.60;;
30818;SDS011;17546;42.674;23.284;2023-10-09T00:37:40;15.52;;;2.88;;
30818;SDS011;17546;42.674;23.284;2023-10-09T00:40:06;20.38;;;2.72;;
30818;SDS011;17546;42.674;23.284;2023-10-09T00:42:45;7.95;;;2.40;;
30818;SDS011;17546;42.674;23.284;2023-10-09T00:45:10;8.30;;;2.35;;
30818;SDS011;17546;42.674;23.284;2023-10-09T00:47:41;13.35;;;2.30;;
30818;SDS011;17546;42.674;23.284;2023-10-09T00:50:09;8.45;;;2.33;;
30818;SDS011;17546;42.674;23.284;2023-10-09T00:52:56;16.63;;;2.58;;
30818;SDS011;17546;42.674;23.284;2023-10-09T00:55:34;13.32;;;2.20;;
30818;SDS011;17546;42.674;23.284;2023-10-09T00:58:14;10.93;;;2.60;;
30818;SDS011;17546;42.674;23.284;2023-10-09T01:00:40;8.07;;;2.45;;
30818;SDS011;17546;42.674;23.284;2023-10-09T01:03:09;8.38;;;2.63;;
30818;SDS011;17546;42.674;23.284;2023-10-09T01:08:22;9.15;;;2.03;;
30818;SDS011;17546;42.674;23.284;2023-10-09T01:11:15;9.95;;;2.08;;
30818;SDS011;17546;42.674;23.284;2023-10-09T01:13:44;10.38;;;1.90;;
30818;SDS011;17546;42.674;23.284;2023-10-09T01:16:14;10.52;;;2.20;;
30818;SDS011;17546;42.674;23.284;2023-10-09T01:18:44;8.73;;;2.20;;
30818;SDS011;17546;42.674;23.284;2023-10-09T01:21:11;10.68;;;2.00;;
30818;SDS011;17546;42.674;23.284;2023-10-09T01:23:41;8.32;;;2.15;;
30818;SDS011;17546;42.674;23.284;2023-10-09T01:26:31;8.30;;;2.03;;
30818;SDS011;17546;42.674;23.284;2023-10-09T01:29:00;9.65;;;1.90;;
30818;SDS011;17546;42.674;23.284;2023-10-09T01:31:26;7.75;;;1.80;;
30818;SDS011;17546;42.674;23.284;2023-10-09T01:33:53;6.30;;;2.05;;
30818;SDS011;17546;42.674;23.284;2023-10-09T01:36:19;7.93;;;1.95;;
30818;SDS011;17546;42.674;23.284;2023-10-09T01:38:58;11.32;;;2.10;;
30818;SDS011;17546;42.674;23.284;2023-10-09T01:41:24;11.30;;;2.10;;
30818;SDS011;17546;42.674;23.284;2023-10-09T01:43:50;5.57;;;1.88;;
30818;SDS011;17546;42.674;23.284;2023-10-09T01:46:25;5.05;;;1.73;;
30818;SDS011;17546;42.674;23.284;2023-10-09T01:48:51;9.70;;;1.80;;
30818;SDS011;17546;42.674;23.284;2023-10-09T01:51:18;7.05;;;1.75;;
30818;SDS011;17546;42.674;23.284;2023-10-09T01:53:45;12.90;;;2.10;;
30818;SDS011;17546;42.674;23.284;2023-10-09T01:56:19;7.03;;;2.15;;
30818;SDS011;17546;42.674;23.284;2023-10-09T01:58:44;11.35;;;2.25;;
30818;SDS011;17546;42.674;23.284;2023-10-09T02:01:12;8.52;;;2.00;;
30818;SDS011;17546;42.674;23.284;2023-10-09T02:03:39;14.27;;;2.60;;
30818;SDS011;17546;42.674;23.284;2023-10-09T02:06:07;8.77;;;2.42;;
30818;SDS011;17546;42.674;23.284;2023-10-09T02:08:51;11.95;;;2.28;;
30818;SDS011;17546;42.674;23.284;2023-10-09T02:11:21;7.38;;;2.50;;
30818;SDS011;17546;42.674;23.284;2023-10-09T02:14:00;9.65;;;2.00;;
30818;SDS011;17546;42.674;23.284;2023-10-09T02:16:26;14.52;;;2.22;;
30818;SDS011;17546;42.674;23.284;2023-10-09T02:18:54;7.30;;;1.88;;
30818;SDS011;17546;42.674;23.284;2023-10-09T02:21:24;8.15;;;2.30;;
30818;SDS011;17546;42.674;23.284;2023-10-09T02:24:00;4.97;;;1.77;;
30818;SDS011;17546;42.674;23.284;2023-10-09T02:26:33;9.52;;;1.90;;
30818;SDS011;17546;42.674;23.284;2023-10-09T02:29:04;9.63;;;2.05;;
30818;SDS011;17546;42.674;23.284;2023-10-09T02:31:40;11.07;;;2.03;;
30818;SDS011;17546;42.674;23.284;2023-10-09T02:34:06;14.07;;;2.03;;
30818;SDS011;17546;42.674;23.284;2023-10-09T02:36:40;8.43;;;2.40;;
30818;SDS011;17546;42.674;23.284;2023-10-09T02:39:14;8.80;;;1.95;;
30818;SDS011;17546;42.674;23.284;2023-10-09T02:41:55;10.02;;;2.08;;
30818;SDS011;17546;42.674;23.284;2023-10-09T02:44:44;11.02;;;2.10;;
30818;SDS011;17546;42.674;23.284;2023-10-09T02:47:15;12.63;;;1.98;;
30818;SDS011;17546;42.674;23.284;2023-10-09T02:49:46;5.75;;;1.88;;
30818;SDS011;17546;42.674;23.284;2023-10-09T02:52:13;6.70;;;1.85;;
30818;SDS011;17546;42.674;23.284;2023-10-09T02:54:43;10.73;;;1.73;;
30818;SDS011;17546;42.674;23.284;2023-10-09T02:57:11;18.83;;;1.80;;
30818;SDS011;17546;42.674;23.284;2023-10-09T02:59:46;7.38;;;1.90;;
30818;SDS011;17546;42.674;23.284;2023-10-09T03:02:12;11.63;;;2.03;;
30818;SDS011;17546;42.674;23.284;2023-10-09T03:04:38;4.95;;;2.30;;
30818;SDS011;17546;42.674;23.284;2023-10-09T03:07:07;6.97;;;2.00;;
30818;SDS011;17546;42.674;23.284;2023-10-09T03:09:32;9.18;;;1.60;;
30818;SDS011;17546;42.674;23.284;2023-10-09T03:12:00;7.72;;;2.60;;
30818;SDS011;17546;42.674;23.284;2023-10-09T03:14:27;15.23;;;2.35;;
30818;SDS011;17546;42.674;23.284;2023-10-09T03:16:54;7.93;;;2.33;;
30818;SDS011;17546;42.674;23.284;2023-10-09T03:19:21;6.28;;;1.73;;
30818;SDS011;17546;42.674;23.284;2023-10-09T03:21:47;5.10;;;1.60;;
30818;SDS011;17546;42.674;23.284;2023-10-09T03:24:13;8.70;;;1.67;;
30818;SDS011;17546;42.674;23.284;2023-10-09T03:26:38;6.18;;;1.60;;
30818;SDS011;17546;42.674;23.284;2023-10-09T03:29:04;4.63;;;1.60;;
30818;SDS011;17546;42.674;23.284;2023-10-09T03:31:35;6.72;;;1.55;;
30818;SDS011;17546;42.674;23.284;2023-10-09T03:34:02;13.25;;;1.48;;
30818;SDS011;17546;42.674;23.284;2023-10-09T03:36:28;17.65;;;1.83;;
30818;SDS011;17546;42.674;23.284;2023-10-09T03:38:59;5.10;;;1.65;;
30818;SDS011;17546;42.674;23.284;2023-10-09T03:41:25;7.88;;;1.60;;
30818;SDS011;17546;42.674;23.284;2023-10-09T03:43:54;4.90;;;1.52;;
30818;SDS011;17546;42.674;23.284;2023-10-09T03:46:20;4.13;;;1.60;;
30818;SDS011;17546;42.674;23.284;2023-10-09T03:48:48;8.82;;;1.50;;
30818;SDS011;17546;42.674;23.284;2023-10-09T03:51:14;7.88;;;1.23;;
30818;SDS011;17546;42.674;23.284;2023-10-09T03:53:46;5.88;;;1.20;;
30818;SDS011;17546;42.674;23.284;2023-10-09T03:56:19;12.20;;;1.30;;
30818;SDS011;17546;42.674;23.284;2023-10-09T03:58:46;9.82;;;1.58;;
30818;SDS011;17546;42.674;23.284;2023-10-09T04:01:18;4.13;;;1.30;;
30818;SDS011;17546;42.674;23.284;2023-10-09T04:03:50;5.07;;;1.23;;
30818;SDS011;17546;42.674;23.284;2023-10-09T04:06:25;8.13;;;1.35;;
30818;SDS011;17546;42.674;23.284;2023-10-09T04:09:11;9.82;;;1.48;;
30818;SDS011;17546;42.674;23.284;2023-10-09T04:11:46;6.53;;;1.30;;
30818;SDS011;17546;42.674;23.284;2023-10-09T04:14:14;7.38;;;1.70;;
30818;SDS011;17546;42.674;23.284;2023-10-09T04:17:00;5.55;;;1.20;;
30818;SDS011;17546;42.674;23.284;2023-10-09T04:19:51;4.63;;;1.67;;
30818;SDS011;17546;42.674;23.284;2023-10-09T04:22:36;7.55;;;1.40;;
30818;SDS011;17546;42.674;23.284;2023-10-09T04:25:14;5.55;;;1.30;;
30818;SDS011;17546;42.674;23.284;2023-10-09T04:27:40;8.90;;;1.48;;
30818;SDS011;17546;42.674;23.284;2023-10-09T04:30:06;7.25;;;1.42;;
30818;SDS011;17546;42.674;23.284;2023-10-09T04:32:32;4.03;;;1.02;;
30818;SDS011;17546;42.674;23.284;2023-10-09T04:35:00;11.13;;;1.50;;
30818;SDS011;17546;42.674;23.284;2023-10-09T04:37:44;12.30;;;1.60;;
30818;SDS011;17546;42.674;23.284;2023-10-09T04:40:17;11.65;;;1.40;;
30818;SDS011;17546;42.674;23.284;2023-10-09T04:43:01;8.75;;;1.67;;
30818;SDS011;17546;42.674;23.284;2023-10-09T04:45:31;7.15;;;1.50;;
30818;SDS011;17546;42.674;23.284;2023-10-09T04:48:19;15.38;;;1.83;;
30818;SDS011;17546;42.674;23.284;2023-10-09T04:50:58;6.35;;;1.40;;
30818;SDS011;17546;42.674;23.284;2023-10-09T04:53:45;4.85;;;1.45;;
30818;SDS011;17546;42.674;23.284;2023-10-09T04:56:30;6.35;;;1.30;;
30818;SDS011;17546;42.674;23.284;2023-10-09T04:58:58;8.18;;;1.42;;
30818;SDS011;17546;42.674;23.284;2023-10-09T05:01:28;2.33;;;1.10;;
30818;SDS011;17546;42.674;23.284;2023-10-09T05:04:11;2.53;;;1.20;;
30818;SDS011;17546;42.674;23.284;2023-10-09T05:07:15;5.47;;;1.25;;
30818;SDS011;17546;42.674;23.284;2023-10-09T05:09:59;6.68;;;1.40;;
30818;SDS011;17546;42.674;23.284;2023-10-09T05:12:35;5.97;;;1.30;;
30818;SDS011;17546;42.674;23.284;2023-10-09T05:15:06;4.47;;;1.48;;
30818;SDS011;17546;42.674;23.284;2023-10-09T05:17:35;8.30;;;1.30;;
30818;SDS011;17546;42.674;23.284;2023-10-09T05:20:04;5.45;;;1.27;;
30818;SDS011;17546;42.674;23.284;2023-10-09T05:22:49;8.53;;;1.57;;
30818;SDS011;17546;42.674;23.284;2023-10-09T05:25:27;12.48;;;1.50;;
30818;SDS011;17546;42.674;23.284;2023-10-09T05:28:18;4.35;;;1.33;;
30818;SDS011;17546;42.674;23.284;2023-10-09T05:31:02;8.90;;;2.47;;
30818;SDS011;17546;42.674;23.284;2023-10-09T05:33:34;3.97;;;1.42;;
30818;SDS011;17546;42.674;23.284;2023-10-09T05:36:02;4.75;;;1.17;;
30818;SDS011;17546;42.674;23.284;2023-10-09T05:38:47;9.27;;;1.55;;
30818;SDS011;17546;42.674;23.284;2023-10-09T05:41:24;5.72;;;1.20;;
30818;SDS011;17546;42.674;23.284;2023-10-09T05:44:12;4.10;;;1.63;;
30818;SDS011;17546;42.674;23.284;2023-10-09T05:47:07;4.03;;;1.40;;
30818;SDS011;17546;42.674;23.284;2023-10-09T05:50:01;14.35;;;1.67;;
30818;SDS011;17546;42.674;23.284;2023-10-09T05:52:47;4.63;;;1.60;;
30818;SDS011;17546;42.674;23.284;2023-10-09T05:55:24;4.78;;;1.40;;
30818;SDS011;17546;42.674;23.284;2023-10-09T05:57:50;4.70;;;1.75;;
30818;SDS011;17546;42.674;23.284;2023-10-09T06:00:38;3.92;;;1.48;;
30818;SDS011;17546;42.674;23.284;2023-10-09T06:03:22;4.18;;;1.40;;
30818;SDS011;17546;42.674;23.284;2023-10-09T06:05:54;7.07;;;1.60;;
30818;SDS011;17546;42.674;23.284;2023-10-09T06:08:26;6.30;;;1.67;;
30818;SDS011;17546;42.674;23.284;2023-10-09T06:11:08;3.92;;;1.50;;
30818;SDS011;17546;42.674;23.284;2023-10-09T06:13:53;3.08;;;2.00;;
30818;SDS011;17546;42.674;23.284;2023-10-09T06:19:06;3.42;;;2.10;;
30818;SDS011;17546;42.674;23.284;2023-10-09T06:21:41;7.68;;;2.50;;
30818;SDS011;17546;42.674;23.284;2023-10-09T06:24:22;4.30;;;1.40;;
30818;SDS011;17546;42.674;23.284;2023-10-09T06:26:48;3.67;;;1.60;;
30818;SDS011;17546;42.674;23.284;2023-10-09T06:29:24;3.50;;;1.30;;
30818;SDS011;17546;42.674;23.284;2023-10-09T06:32:06;2.80;;;1.13;;
30818;SDS011;17546;42.674;23.284;2023-10-09T06:37:40;2.47;;;1.23;;
30818;SDS011;17546;42.674;23.284;2023-10-09T06:40:30;7.47;;;1.27;;
30818;SDS011;17546;42.674;23.284;2023-10-09T06:43:18;4.93;;;1.45;;
30818;SDS011;17546;42.674;23.284;2023-10-09T06:45:47;1.77;;;1.20;;
30818;SDS011;17546;42.674;23.284;2023-10-09T06:48:34;3.83;;;1.50;;
30818;SDS011;17546;42.674;23.284;2023-10-09T06:53:33;3.05;;;1.10;;
30818;SDS011;17546;42.674;23.284;2023-10-09T06:56:31;9.57;;;1.60;;
30818;SDS011;17546;42.674;23.284;2023-10-09T06:58:56;5.28;;;1.50;;
30818;SDS011;17546;42.674;23.284;2023-10-09T07:01:23;6.35;;;1.40;;
30818;SDS011;17546;42.674;23.284;2023-10-09T07:03:52;4.47;;;1.58;;
30818;SDS011;17546;42.674;23.284;2023-10-09T07:06:18;2.70;;;1.23;;
30818;SDS011;17546;42.674;23.284;2023-10-09T07:08:51;6.13;;;1.88;;
30818;SDS011;17546;42.674;23.284;2023-10-09T07:17:10;3.92;;;1.33;;
30818;SDS011;17546;42.674;23.284;2023-10-09T07:19:48;2.30;;;1.17;;
30818;SDS011;17546;42.674;23.284;2023-10-09T07:22:15;8.63;;;1.30;;
30818;SDS011;17546;42.674;23.284;2023-10-09T07:24:54;7.57;;;1.48;;
30818;SDS011;17546;42.674;23.284;2023-10-09T07:27:21;7.60;;;1.38;;
30818;SDS011;17546;42.674;23.284;2023-10-09T07:30:09;5.70;;;1.33;;
30818;SDS011;17546;42.674;23.284;2023-10-09T07:32:52;2.53;;;1.30;;
30818;SDS011;17546;42.674;23.284;2023-10-09T07:35:20;4.78;;;1.55;;
30818;SDS011;17546;42.674;23.284;2023-10-09T07:38:04;5.73;;;1.13;;
30818;SDS011;17546;42.674;23.284;2023-10-09T07:40:33;7.65;;;1.60;;
30818;SDS011;17546;42.674;23.284;2023-10-09T07:43:17;8.32;;;1.95;;
30818;SDS011;17546;42.674;23.284;2023-10-09T07:45:43;3.33;;;1.40;;
30818;SDS011;17546;42.674;23.284;2023-10-09T07:48:23;5.28;;;1.30;;
30818;SDS011;17546;42.674;23.284;2023-10-09T07:51:03;2.38;;;1.30;;
30818;SDS011;17546;42.674;23.284;2023-10-09T07:53:36;5.03;;;1.00;;
30818;SDS011;17546;42.674;23.284;2023-10-09T07:56:08;7.18;;;1.10;;
30818;SDS011;17546;42.674;23.284;2023-10-09T07:58:34;4.93;;;1.23;;
30818;SDS011;17546;42.674;23.284;2023-10-09T08:01:11;3.60;;;1.20;;
30818;SDS011;17546;42.674;23.284;2023-10-09T08:04:00;2.90;;;1.20;;
30818;SDS011;17546;42.674;23.284;2023-10-09T08:06:37;8.38;;;1.20;;
30818;SDS011;17546;42.674;23.284;2023-10-09T08:09:06;5.30;;;1.20;;
30818;SDS011;17546;42.674;23.284;2023-10-09T08:11:38;4.40;;;1.10;;
30818;SDS011;17546;42.674;23.284;2023-10-09T08:14:22;3.05;;;1.30;;
30818;SDS011;17546;42.674;23.284;2023-10-09T08:17:00;2.38;;;1.48;;
30818;SDS011;17546;42.674;23.284;2023-10-09T08:19:47;3.55;;;1.10;;
30818;SDS011;17546;42.674;23.284;2023-10-09T08:22:22;3.80;;;1.58;;
30818;SDS011;17546;42.674;23.284;2023-10-09T08:24:53;5.63;;;1.30;;
30818;SDS011;17546;42.674;23.284;2023-10-09T08:30:04;3.10;;;1.30;;
30818;SDS011;17546;42.674;23.284;2023-10-09T08:35:18;2.35;;;1.33;;
30818;SDS011;17546;42.674;23.284;2023-10-09T08:37:58;3.53;;;1.38;;
30818;SDS011;17546;42.674;23.284;2023-10-09T08:40:50;6.95;;;1.40;;
30818;SDS011;17546;42.674;23.284;2023-10-09T08:43:20;5.43;;;1.38;;
30818;SDS011;17546;42.674;23.284;2023-10-09T08:45:57;2.22;;;1.00;;
30818;SDS011;17546;42.674;23.284;2023-10-09T08:48:31;2.53;;;1.10;;
30818;SDS011;17546;42.674;23.284;2023-10-09T08:51:02;3.75;;;1.83;;
30818;SDS011;17546;42.674;23.284;2023-10-09T08:53:32;4.72;;;1.30;;
30818;SDS011;17546;42.674;23.284;2023-10-09T08:55:58;3.78;;;1.30;;
30818;SDS011;17546;42.674;23.284;2023-10-09T08:58:24;11.85;;;1.25;;
30818;SDS011;17546;42.674;23.284;2023-10-09T09:00:51;3.08;;;1.38;;
30818;SDS011;17546;42.674;23.284;2023-10-09T09:03:20;6.53;;;1.35;;
30818;SDS011;17546;42.674;23.284;2023-10-09T09:05:58;1.88;;;1.23;;
30818;SDS011;17546;42.674;23.284;2023-10-09T09:08:28;2.40;;;1.15;;
30818;SDS011;17546;42.674;23.284;2023-10-09T09:10:58;1.42;;;1.00;;
30818;SDS011;17546;42.674;23.284;2023-10-09T09:13:40;10.82;;;1.80;;
30818;SDS011;17546;42.674;23.284;2023-10-09T09:19:01;7.25;;;1.67;;
30818;SDS011;17546;42.674;23.284;2023-10-09T09:21:30;14.77;;;9.10;;
30818;SDS011;17546;42.674;23.284;2023-10-09T09:24:05;9.18;;;2.30;;
30818;SDS011;17546;42.674;23.284;2023-10-09T09:26:42;8.38;;;1.63;;
30818;SDS011;17546;42.674;23.284;2023-10-09T09:29:14;1.23;;;1.08;;
30818;SDS011;17546;42.674;23.284;2023-10-09T09:31:54;4.22;;;1.88;;
30818;SDS011;17546;42.674;23.284;2023-10-09T09:34:22;4.30;;;1.50;;
30818;SDS011;17546;42.674;23.284;2023-10-09T09:36:51;4.25;;;1.45;;
30818;SDS011;17546;42.674;23.284;2023-10-09T09:39:22;14.50;;;1.90;;
30818;SDS011;17546;42.674;23.284;2023-10-09T09:41:59;3.65;;;1.85;;
30818;SDS011;17546;42.674;23.284;2023-10-09T09:44:55;5.97;;;1.70;;
30818;SDS011;17546;42.674;23.284;2023-10-09T09:47:20;6.63;;;1.90;;
30818;SDS011;17546;42.674;23.284;2023-10-09T09:49:52;2.47;;;1.52;;
30818;SDS011;17546;42.674;23.284;2023-10-09T09:52:25;10.35;;;1.25;;
30818;SDS011;17546;42.674;23.284;2023-10-09T09:54:54;4.85;;;1.50;;
30818;SDS011;17546;42.674;23.284;2023-10-09T09:57:20;4.15;;;1.63;;
30818;SDS011;17546;42.674;23.284;2023-10-09T09:59:51;7.45;;;1.48;;
30818;SDS011;17546;42.674;23.284;2023-10-09T10:02:23;4.20;;;1.45;;
30818;SDS011;17546;42.674;23.284;2023-10-09T10:04:55;3.78;;;1.45;;
30818;SDS011;17546;42.674;23.284;2023-10-09T10:07:24;6.40;;;1.88;;
30818;SDS011;17546;42.674;23.284;2023-10-09T10:09:53;5.13;;;1.55;;
30818;SDS011;17546;42.674;23.284;2023-10-09T10:18:34;15.07;;;1.75;;
30818;SDS011;17546;42.674;23.284;2023-10-09T10:21:19;4.88;;;1.63;;
30818;SDS011;17546;42.674;23.284;2023-10-09T10:24:01;21.17;;;2.88;;
30818;SDS011;17546;42.674;23.284;2023-10-09T10:26:36;7.65;;;1.92;;
30818;SDS011;17546;42.674;23.284;2023-10-09T10:37:23;5.32;;;1.70;;
30818;SDS011;17546;42.674;23.284;2023-10-09T10:40:23;7.57;;;1.40;;
30818;SDS011;17546;42.674;23.284;2023-10-09T10:43:03;6.25;;;1.40;;
30818;SDS011;17546;42.674;23.284;2023-10-09T10:45:39;2.13;;;1.33;;
30818;SDS011;17546;42.674;23.284;2023-10-09T10:48:11;4.30;;;1.73;;
30818;SDS011;17546;42.674;23.284;2023-10-09T10:51:03;9.90;;;2.13;;
30818;SDS011;17546;42.674;23.284;2023-10-09T10:53:29;4.95;;;1.60;;
30818;SDS011;17546;42.674;23.284;2023-10-09T10:56:12;3.92;;;1.35;;
30818;SDS011;17546;42.674;23.284;2023-10-09T10:58:42;4.78;;;1.40;;
30818;SDS011;17546;42.674;23.284;2023-10-09T11:01:31;5.38;;;1.50;;
30818;SDS011;17546;42.674;23.284;2023-10-09T11:04:16;2.40;;;1.38;;
30818;SDS011;17546;42.674;23.284;2023-10-09T11:07:11;4.93;;;1.73;;
30818;SDS011;17546;42.674;23.284;2023-10-09T11:09:54;6.68;;;1.65;;
30818;SDS011;17546;42.674;23.284;2023-10-09T11:15:30;3.65;;;1.73;;
30818;SDS011;17546;42.674;23.284;2023-10-09T11:18:09;3.85;;;1.52;;
30818;SDS011;17546;42.674;23.284;2023-10-09T11:20:48;8.63;;;1.80;;
30818;SDS011;17546;42.674;23.284;2023-10-09T11:23:27;7.50;;;1.40;;
30818;SDS011;17546;42.674;23.284;2023-10-09T11:25:59;3.80;;;1.90;;
30818;SDS011;17546;42.674;23.284;2023-10-09T11:28:44;10.77;;;3.00;;
30818;SDS011;17546;42.674;23.284;2023-10-09T11:31:22;6.65;;;1.85;;
30818;SDS011;17546;42.674;23.284;2023-10-09T11:33:49;5.30;;;1.80;;
30818;SDS011;17546;42.674;23.284;2023-10-09T11:36:16;6.97;;;1.83;;
30818;SDS011;17546;42.674;23.284;2023-10-09T11:38:46;11.98;;;2.58;;
30818;SDS011;17546;42.674;23.284;2023-10-09T11:41:14;10.52;;;4.22;;
30818;SDS011;17546;42.674;23.284;2023-10-09T11:43:50;7.95;;;3.10;;
30818;SDS011;17546;42.674;23.284;2023-10-09T11:46:23;7.65;;;2.53;;
30818;SDS011;17546;42.674;23.284;2023-10-09T11:49:08;8.98;;;2.60;;
30818;SDS011;17546;42.674;23.284;2023-10-09T11:51:51;6.22;;;2.00;;
30818;SDS011;17546;42.674;23.284;2023-10-09T11:54:48;6.45;;;1.85;;
30818;SDS011;17546;42.674;23.284;2023-10-09T11:57:14;6.40;;;1.88;;
30818;SDS011;17546;42.674;23.284;2023-10-09T11:59:42;7.32;;;1.88;;
30818;SDS011;17546;42.674;23.284;2023-10-09T12:02:08;2.33;;;1.70;;
30818;SDS011;17546;42.674;23.284;2023-10-09T12:04:41;2.83;;;1.30;;
30818;SDS011;17546;42.674;23.284;2023-10-09T12:07:10;2.15;;;1.40;;
30818;SDS011;17546;42.674;23.284;2023-10-09T12:09:36;5.32;;;1.45;;
30818;SDS011;17546;42.674;23.284;2023-10-09T12:12:06;6.95;;;1.50;;
30818;SDS011;17546;42.674;23.284;2023-10-09T12:14:34;4.78;;;1.63;;
30818;SDS011;17546;42.674;23.284;2023-10-09T12:17:00;3.53;;;1.30;;
30818;SDS011;17546;42.674;23.284;2023-10-09T12:19:33;5.57;;;1.50;;
30818;SDS011;17546;42.674;23.284;2023-10-09T12:22:03;5.65;;;1.38;;
30818;SDS011;17546;42.674;23.284;2023-10-09T12:24:30;5.50;;;1.30;;
30818;SDS011;17546;42.674;23.284;2023-10-09T12:26:58;5.32;;;1.30;;
30818;SDS011;17546;42.674;23.284;2023-10-09T12:29:24;7.55;;;1.40;;
30818;SDS011;17546;42.674;23.284;2023-10-09T12:31:49;10.20;;;1.92;;
30818;SDS011;17546;42.674;23.284;2023-10-09T12:34:23;7.85;;;1.50;;
30818;SDS011;17546;42.674;23.284;2023-10-09T12:36:51;3.28;;;1.20;;
30818;SDS011;17546;42.674;23.284;2023-10-09T12:39:20;2.95;;;1.30;;
30818;SDS011;17546;42.674;23.284;2023-10-09T12:41:47;1.52;;;1.02;;
30818;SDS011;17546;42.674;23.284;2023-10-09T12:44:13;2.67;;;1.30;;
30818;SDS011;17546;42.674;23.284;2023-10-09T12:46:44;6.90;;;1.40;;
30818;SDS011;17546;42.674;23.284;2023-10-09T12:49:19;3.10;;;1.27;;
30818;SDS011;17546;42.674;23.284;2023-10-09T12:51:50;4.05;;;1.38;;
30818;SDS011;17546;42.674;23.284;2023-10-09T12:54:19;6.45;;;1.50;;
30818;SDS011;17546;42.674;23.284;2023-10-09T12:56:45;2.85;;;1.40;;
30818;SDS011;17546;42.674;23.284;2023-10-09T12:59:13;5.47;;;1.45;;
30818;SDS011;17546;42.674;23.284;2023-10-09T13:01:40;6.40;;;1.48;;
30818;SDS011;17546;42.674;23.284;2023-10-09T13:04:18;9.38;;;1.55;;
30818;SDS011;17546;42.674;23.284;2023-10-09T13:06:47;7.85;;;1.60;;
30818;SDS011;17546;42.674;23.284;2023-10-09T13:09:15;3.22;;;1.65;;
30818;SDS011;17546;42.674;23.284;2023-10-09T13:11:49;8.85;;;1.88;;
30818;SDS011;17546;42.674;23.284;2023-10-09T13:14:15;5.13;;;1.40;;
30818;SDS011;17546;42.674;23.284;2023-10-09T13:16:47;4.32;;;1.38;;
30818;SDS011;17546;42.674;23.284;2023-10-09T13:19:15;7.38;;;1.60;;
30818;SDS011;17546;42.674;23.284;2023-10-09T13:21:42;5.90;;;1.65;;
30818;SDS011;17546;42.674;23.284;2023-10-09T13:24:09;2.42;;;1.35;;
30818;SDS011;17546;42.674;23.284;2023-10-09T13:26:49;6.10;;;1.70;;
30818;SDS011;17546;42.674;23.284;2023-10-09T13:29:17;5.25;;;1.75;;
30818;SDS011;17546;42.674;23.284;2023-10-09T13:31:47;4.28;;;2.00;;
30818;SDS011;17546;42.674;23.284;2023-10-09T13:34:16;7.45;;;1.50;;
30818;SDS011;17546;42.674;23.284;2023-10-09T13:36:41;8.90;;;1.90;;
30818;SDS011;17546;42.674;23.284;2023-10-09T13:39:18;7.32;;;1.90;;
30818;SDS011;17546;42.674;23.284;2023-10-09T13:44:22;6.45;;;1.70;;
30818;SDS011;17546;42.674;23.284;2023-10-09T13:46:52;8.90;;;1.83;;
30818;SDS011;17546;42.674;23.284;2023-10-09T13:49:22;9.02;;;1.92;;
30818;SDS011;17546;42.674;23.284;2023-10-09T13:51:49;7.43;;;2.00;;
30818;SDS011;17546;42.674;23.284;2023-10-09T13:54:16;5.13;;;1.92;;
30818;SDS011;17546;42.674;23.284;2023-10-09T13:56:56;7.25;;;1.90;;
30818;SDS011;17546;42.674;23.284;2023-10-09T13:59:22;7.28;;;2.20;;
30818;SDS011;17546;42.674;23.284;2023-10-09T14:01:50;8.13;;;2.38;;
30818;SDS011;17546;42.674;23.284;2023-10-09T14:04:20;18.35;;;2.40;;
30818;SDS011;17546;42.674;23.284;2023-10-09T14:06:46;9.60;;;2.60;;
30818;SDS011;17546;42.674;23.284;2023-10-09T14:09:12;8.88;;;2.28;;
30818;SDS011;17546;42.674;23.284;2023-10-09T14:11:56;12.90;;;2.92;;
30818;SDS011;17546;42.674;23.284;2023-10-09T14:14:32;9.38;;;3.60;;
30818;SDS011;17546;42.674;23.284;2023-10-09T14:17:09;9.18;;;3.58;;
30818;SDS011;17546;42.674;23.284;2023-10-09T14:19:39;10.18;;;3.67;;
30818;SDS011;17546;42.674;23.284;2023-10-09T14:22:06;15.73;;;4.97;;
30818;SDS011;17546;42.674;23.284;2023-10-09T14:24:32;18.88;;;6.00;;
30818;SDS011;17546;42.674;23.284;2023-10-09T14:27:00;18.05;;;4.80;;
30818;SDS011;17546;42.674;23.284;2023-10-09T14:29:29;8.75;;;3.97;;
30818;SDS011;17546;42.674;23.284;2023-10-09T14:31:58;21.75;;;3.53;;
30818;SDS011;17546;42.674;23.284;2023-10-09T14:34:26;11.02;;;3.65;;
30818;SDS011;17546;42.674;23.284;2023-10-09T14:37:01;12.77;;;3.10;;
30818;SDS011;17546;42.674;23.284;2023-10-09T14:39:28;12.68;;;2.92;;
30818;SDS011;17546;42.674;23.284;2023-10-09T14:41:54;15.55;;;3.00;;
30818;SDS011;17546;42.674;23.284;2023-10-09T14:44:23;18.83;;;2.65;;
30818;SDS011;17546;42.674;23.284;2023-10-09T14:46:53;16.90;;;2.97;;
30818;SDS011;17546;42.674;23.284;2023-10-09T14:49:20;11.95;;;2.95;;
30818;SDS011;17546;42.674;23.284;2023-10-09T14:51:46;9.90;;;2.88;;
30818;SDS011;17546;42.674;23.284;2023-10-09T14:54:12;12.00;;;3.17;;
30818;SDS011;17546;42.674;23.284;2023-10-09T14:56:40;10.20;;;2.85;;
30818;SDS011;17546;42.674;23.284;2023-10-09T14:59:06;13.98;;;3.20;;
30818;SDS011;17546;42.674;23.284;2023-10-09T15:01:31;12.55;;;2.70;;
30818;SDS011;17546;42.674;23.284;2023-10-09T15:04:00;9.85;;;3.13;;
30818;SDS011;17546;42.674;23.284;2023-10-09T15:06:26;11.60;;;3.00;;
30818;SDS011;17546;42.674;23.284;2023-10-09T15:08:53;6.38;;;3.05;;
30818;SDS011;17546;42.674;23.284;2023-10-09T15:11:26;11.57;;;3.25;;
30818;SDS011;17546;42.674;23.284;2023-10-09T15:13:54;9.02;;;2.83;;
30818;SDS011;17546;42.674;23.284;2023-10-09T15:16:22;15.98;;;3.03;;
30818;SDS011;17546;42.674;23.284;2023-10-09T15:18:51;12.23;;;3.28;;
30818;SDS011;17546;42.674;23.284;2023-10-09T15:21:22;9.15;;;3.15;;
30818;SDS011;17546;42.674;23.284;2023-10-09T15:23:51;13.55;;;3.75;;
30818;SDS011;17546;42.674;23.284;2023-10-09T15:26:20;9.75;;;3.30;;
30818;SDS011;17546;42.674;23.284;2023-10-09T15:28:46;7.95;;;3.53;;
30818;SDS011;17546;42.674;23.284;2023-10-09T15:31:14;10.77;;;2.97;;
30818;SDS011;17546;42.674;23.284;2023-10-09T15:33:41;10.70;;;3.53;;
30818;SDS011;17546;42.674;23.284;2023-10-09T15:36:14;13.27;;;3.13;;
30818;SDS011;17546;42.674;23.284;2023-10-09T15:38:42;10.00;;;3.45;;
30818;SDS011;17546;42.674;23.284;2023-10-09T15:41:08;11.93;;;5.07;;
30818;SDS011;17546;42.674;23.284;2023-10-09T15:43:37;17.30;;;5.25;;
30818;SDS011;17546;42.674;23.284;2023-10-09T15:46:10;12.23;;;5.20;;
30818;SDS011;17546;42.674;23.284;2023-10-09T15:48:41;20.45;;;4.63;;
30818;SDS011;17546;42.674;23.284;2023-10-09T15:51:09;22.83;;;4.30;;